ARG1340 SABE-SGAS
Flight info
| Callsign | ARG1340 |
|---|---|
| Flight time | 1h 24m |
| Altitude | FL370 |
| Route | LAND4B LANDA UN785 GEMSU UP526 SAMGU |
| Aircraft | B738/M-SDE2E3FGHIRWXY/LB1 |
Departure
| Time | 2026-04-17 13:09 |
|---|---|
| Airport | Aeroparque Jorge Newbery (SABE) |
Arrival
| Time | 2026-04-17 14:33 |
|---|---|
| Airport | Silvio Pettirossi International Airport (SGAS) |
| Time | Latitude | Longitude | Altitude | Speed | Heading |
|---|---|---|---|---|---|
| 2026-04-17 12:42 | -34.55680 | -58.41486 | 18 ft | 0 kts | 13° |
| 2026-04-17 12:43 | -34.55681 | -58.41487 | 24 ft | 0 kts | 13° |
| 2026-04-17 12:57 | -34.55692 | -58.41490 | 30 ft | 4 kts | 6° |
| 2026-04-17 12:58 | -34.55718 | -58.41487 | 28 ft | 4 kts | 335° |
| 2026-04-17 12:58 | -34.55738 | -58.41468 | 28 ft | 4 kts | 303° |
| 2026-04-17 12:58 | -34.55749 | -58.41444 | 29 ft | 1 kts | 298° |
| 2026-04-17 12:58 | -34.55750 | -58.41443 | 29 ft | 0 kts | 298° |
| 2026-04-17 13:02 | -34.55748 | -58.41446 | 24 ft | 1 kts | 298° |
| 2026-04-17 13:02 | -34.55739 | -58.41467 | 26 ft | 4 kts | 298° |
| 2026-04-17 13:02 | -34.55722 | -58.41512 | 25 ft | 7 kts | 284° |
| 2026-04-17 13:03 | -34.55748 | -58.41568 | 26 ft | 9 kts | 217° |
| 2026-04-17 13:03 | -34.55783 | -58.41634 | 24 ft | 11 kts | 283° |
| 2026-04-17 13:03 | -34.55750 | -58.41723 | 24 ft | 12 kts | 297° |
| 2026-04-17 13:03 | -34.55712 | -58.41799 | 27 ft | 10 kts | 304° |
| 2026-04-17 13:04 | -34.55672 | -58.41871 | 26 ft | 11 kts | 303° |
| 2026-04-17 13:04 | -34.55631 | -58.41946 | 27 ft | 11 kts | 303° |
| 2026-04-17 13:04 | -34.55588 | -58.42024 | 24 ft | 11 kts | 304° |
| 2026-04-17 13:04 | -34.55541 | -58.42100 | 24 ft | 11 kts | 307° |
| 2026-04-17 13:05 | -34.55496 | -58.42171 | 26 ft | 10 kts | 307° |
| 2026-04-17 13:05 | -34.55453 | -58.42241 | 28 ft | 11 kts | 307° |
| 2026-04-17 13:05 | -34.55408 | -58.42314 | 28 ft | 11 kts | 308° |
| 2026-04-17 13:05 | -34.55375 | -58.42369 | 25 ft | 4 kts | 297° |
| 2026-04-17 13:06 | -34.55374 | -58.42371 | 25 ft | 0 kts | 296° |
| 2026-04-17 13:07 | -34.55374 | -58.42372 | 29 ft | 1 kts | 296° |
| 2026-04-17 13:07 | -34.55366 | -58.42412 | 24 ft | 11 kts | 279° |
| 2026-04-17 13:07 | -34.55383 | -58.42501 | 27 ft | 8 kts | 204° |
| 2026-04-17 13:08 | -34.55428 | -58.42467 | 27 ft | 0 kts | 123° |
| 2026-04-17 13:08 | -34.55436 | -58.42452 | 26 ft | 17 kts | 123° |
| 2026-04-17 13:08 | -34.55657 | -58.42059 | 30 ft | 95 kts | 124° |
| 2026-04-17 13:09 | -34.56155 | -58.41166 | 33 ft | 156 kts | 124° |
| 2026-04-17 13:09 | -34.56741 | -58.40116 | 775 ft | 150 kts | 128° |
| 2026-04-17 13:09 | -34.57269 | -58.38999 | 1485 ft | 158 kts | 121° |
| 2026-04-17 13:09 | -34.57384 | -58.37581 | 1960 ft | 192 kts | 80° |
| 2026-04-17 13:10 | -34.56784 | -58.35982 | 2242 ft | 228 kts | 59° |
| 2026-04-17 13:10 | -34.55546 | -58.34610 | 2470 ft | 256 kts | 33° |
| 2026-04-17 13:10 | -34.54014 | -58.33433 | 2967 ft | 268 kts | 33° |
| 2026-04-17 13:10 | -34.52379 | -58.32171 | 3365 ft | 287 kts | 33° |
| 2026-04-17 13:11 | -34.50681 | -58.30863 | 4190 ft | 291 kts | 34° |
| 2026-04-17 13:11 | -34.48921 | -58.29654 | 5098 ft | 295 kts | 21° |
| 2026-04-17 13:11 | -34.46880 | -58.29312 | 5879 ft | 302 kts | 353° |
| 2026-04-17 13:11 | -34.44880 | -58.30060 | 6636 ft | 304 kts | 328° |
| 2026-04-17 13:12 | -34.43094 | -58.31421 | 7446 ft | 305 kts | 323° |
| 2026-04-17 13:12 | -34.39562 | -58.34350 | 9021 ft | 312 kts | 321° |
| 2026-04-17 13:12 | -34.37765 | -58.35845 | 9811 ft | 316 kts | 321° |
| 2026-04-17 13:13 | -34.35933 | -58.37358 | 10386 ft | 327 kts | 321° |
| 2026-04-17 13:13 | -34.34038 | -58.38918 | 10562 ft | 351 kts | 322° |
| 2026-04-17 13:13 | -34.31971 | -58.40608 | 10948 ft | 365 kts | 322° |
| 2026-04-17 13:13 | -34.29854 | -58.42324 | 11664 ft | 367 kts | 322° |
| 2026-04-17 13:14 | -34.27740 | -58.44032 | 12539 ft | 365 kts | 322° |
| 2026-04-17 13:14 | -34.25632 | -58.45734 | 13362 ft | 365 kts | 322° |
| 2026-04-17 13:14 | -34.23521 | -58.47439 | 14090 ft | 367 kts | 322° |
| 2026-04-17 13:14 | -34.21397 | -58.49157 | 14741 ft | 369 kts | 322° |
| 2026-04-17 13:15 | -34.19262 | -58.50882 | 15392 ft | 371 kts | 322° |
| 2026-04-17 13:15 | -34.17113 | -58.52617 | 16083 ft | 372 kts | 322° |
| 2026-04-17 13:15 | -34.14960 | -58.54354 | 16757 ft | 374 kts | 322° |
| 2026-04-17 13:15 | -34.12715 | -58.55956 | 17388 ft | 381 kts | 334° |
| 2026-04-17 13:16 | -34.10111 | -58.56702 | 18021 ft | 392 kts | 352° |
| 2026-04-17 13:16 | -34.07386 | -58.56839 | 18612 ft | 395 kts | 354° |
| 2026-04-17 13:16 | -34.04630 | -58.56921 | 19104 ft | 399 kts | 354° |
| 2026-04-17 13:16 | -34.01852 | -58.57008 | 19607 ft | 402 kts | 354° |
| 2026-04-17 13:17 | -33.99058 | -58.57114 | 20138 ft | 404 kts | 354° |
| 2026-04-17 13:17 | -33.96243 | -58.57238 | 20659 ft | 406 kts | 354° |
| 2026-04-17 13:17 | -33.93417 | -58.57373 | 21179 ft | 409 kts | 353° |
| 2026-04-17 13:17 | -33.90575 | -58.57510 | 21662 ft | 411 kts | 353° |
| 2026-04-17 13:18 | -33.87709 | -58.57642 | 22149 ft | 414 kts | 354° |
| 2026-04-17 13:18 | -33.84823 | -58.57770 | 22619 ft | 417 kts | 354° |
| 2026-04-17 13:18 | -33.81921 | -58.57897 | 23070 ft | 420 kts | 354° |
| 2026-04-17 13:18 | -33.78997 | -58.58023 | 23516 ft | 422 kts | 354° |
| 2026-04-17 13:19 | -33.76059 | -58.58150 | 23894 ft | 425 kts | 354° |
| 2026-04-17 13:19 | -33.73104 | -58.58278 | 24292 ft | 427 kts | 354° |
| 2026-04-17 13:19 | -33.70140 | -58.58407 | 24658 ft | 429 kts | 354° |
| 2026-04-17 13:19 | -33.67154 | -58.58537 | 25029 ft | 431 kts | 354° |
| 2026-04-17 13:20 | -33.64158 | -58.58668 | 25411 ft | 433 kts | 353° |
| 2026-04-17 13:20 | -33.61146 | -58.58799 | 25771 ft | 435 kts | 353° |
| 2026-04-17 13:20 | -33.58116 | -58.58931 | 26131 ft | 437 kts | 353° |
| 2026-04-17 13:20 | -33.55075 | -58.59063 | 26476 ft | 440 kts | 353° |
| 2026-04-17 13:21 | -33.52019 | -58.59196 | 26825 ft | 442 kts | 353° |
| 2026-04-17 13:21 | -33.48946 | -58.59330 | 27167 ft | 444 kts | 353° |
| 2026-04-17 13:21 | -33.45860 | -58.59464 | 27500 ft | 446 kts | 353° |
| 2026-04-17 13:21 | -33.42761 | -58.59599 | 27822 ft | 448 kts | 353° |
| 2026-04-17 13:22 | -33.39645 | -58.59734 | 28146 ft | 450 kts | 353° |
| 2026-04-17 13:22 | -33.36515 | -58.59869 | 28469 ft | 452 kts | 353° |
| 2026-04-17 13:22 | -33.33371 | -58.60005 | 28778 ft | 454 kts | 353° |
| 2026-04-17 13:22 | -33.30212 | -58.60142 | 29082 ft | 456 kts | 353° |
| 2026-04-17 13:23 | -33.27040 | -58.60279 | 29401 ft | 458 kts | 353° |
| 2026-04-17 13:23 | -33.23854 | -58.60417 | 29698 ft | 460 kts | 353° |
| 2026-04-17 13:23 | -33.20652 | -58.60555 | 29964 ft | 462 kts | 353° |
| 2026-04-17 13:23 | -33.17439 | -58.60694 | 30203 ft | 464 kts | 353° |
| 2026-04-17 13:24 | -33.14208 | -58.60833 | 30453 ft | 466 kts | 353° |
| 2026-04-17 13:24 | -33.10972 | -58.60972 | 30705 ft | 467 kts | 353° |
| 2026-04-17 13:24 | -33.07731 | -58.61111 | 30974 ft | 467 kts | 353° |
| 2026-04-17 13:24 | -33.04494 | -58.61249 | 31325 ft | 466 kts | 353° |
| 2026-04-17 13:25 | -33.01254 | -58.61149 | 31687 ft | 469 kts | 1° |
| 2026-04-17 13:25 | -32.98033 | -58.60477 | 32017 ft | 474 kts | 10° |
| 2026-04-17 13:25 | -32.94869 | -58.59355 | 32309 ft | 476 kts | 12° |
| 2026-04-17 13:25 | -32.91721 | -58.58165 | 32566 ft | 477 kts | 13° |
| 2026-04-17 13:26 | -32.88569 | -58.56958 | 32846 ft | 476 kts | 12° |
| 2026-04-17 13:26 | -32.85421 | -58.55765 | 33158 ft | 475 kts | 12° |
| 2026-04-17 13:26 | -32.82279 | -58.54592 | 33461 ft | 474 kts | 12° |
| 2026-04-17 13:26 | -32.79136 | -58.53436 | 33732 ft | 474 kts | 11° |
| 2026-04-17 13:27 | -32.75988 | -58.52289 | 33960 ft | 474 kts | 11° |
| 2026-04-17 13:27 | -32.72845 | -58.51150 | 34217 ft | 473 kts | 11° |
| 2026-04-17 13:27 | -32.69704 | -58.50013 | 34437 ft | 473 kts | 11° |
| 2026-04-17 13:27 | -32.66566 | -58.48878 | 34647 ft | 473 kts | 11° |
| 2026-04-17 13:28 | -32.63428 | -58.47743 | 34864 ft | 473 kts | 11° |
| 2026-04-17 13:28 | -32.60286 | -58.46607 | 35078 ft | 472 kts | 11° |
| 2026-04-17 13:28 | -32.57148 | -58.45473 | 35265 ft | 473 kts | 11° |
| 2026-04-17 13:28 | -32.54009 | -58.44339 | 35475 ft | 473 kts | 11° |
| 2026-04-17 13:29 | -32.50874 | -58.43207 | 35679 ft | 473 kts | 11° |
| 2026-04-17 13:29 | -32.47736 | -58.42075 | 35885 ft | 472 kts | 11° |
| 2026-04-17 13:29 | -32.44596 | -58.40943 | 36070 ft | 473 kts | 11° |
| 2026-04-17 13:29 | -32.41458 | -58.39812 | 36249 ft | 473 kts | 11° |
| 2026-04-17 13:30 | -32.38317 | -58.38681 | 36450 ft | 472 kts | 11° |
| 2026-04-17 13:30 | -32.35181 | -58.37552 | 36650 ft | 472 kts | 11° |
| 2026-04-17 13:30 | -32.32045 | -58.36425 | 36831 ft | 472 kts | 11° |
| 2026-04-17 13:30 | -32.28907 | -58.35296 | 36915 ft | 474 kts | 11° |
| 2026-04-17 13:31 | -32.22601 | -58.33025 | 36917 ft | 474 kts | 11° |
| 2026-04-17 13:31 | -32.16319 | -58.30758 | 36916 ft | 472 kts | 11° |
| 2026-04-17 13:32 | -32.10073 | -58.28509 | 36921 ft | 469 kts | 11° |
| 2026-04-17 13:32 | -32.03847 | -58.26273 | 36924 ft | 468 kts | 11° |
| 2026-04-17 13:33 | -31.97635 | -58.24045 | 36933 ft | 467 kts | 11° |
| 2026-04-17 13:33 | -31.91419 | -58.21821 | 36932 ft | 468 kts | 11° |
| 2026-04-17 13:34 | -31.85189 | -58.19593 | 36931 ft | 469 kts | 11° |
| 2026-04-17 13:34 | -31.78941 | -58.17362 | 36933 ft | 471 kts | 11° |
| 2026-04-17 13:35 | -31.72664 | -58.15124 | 36927 ft | 473 kts | 11° |
| 2026-04-17 13:35 | -31.66359 | -58.12878 | 36922 ft | 475 kts | 11° |
| 2026-04-17 13:36 | -31.60032 | -58.10628 | 36921 ft | 477 kts | 11° |
| 2026-04-17 13:36 | -31.53688 | -58.08375 | 36919 ft | 478 kts | 11° |
| 2026-04-17 13:37 | -31.47327 | -58.06118 | 36914 ft | 479 kts | 11° |
| 2026-04-17 13:37 | -31.40957 | -58.03862 | 36909 ft | 479 kts | 11° |
| 2026-04-17 13:38 | -31.34588 | -58.01610 | 36935 ft | 479 kts | 11° |
| 2026-04-17 13:38 | -31.28225 | -57.99362 | 36939 ft | 478 kts | 11° |
| 2026-04-17 13:39 | -31.21867 | -57.97120 | 36932 ft | 478 kts | 11° |
| 2026-04-17 13:39 | -31.15521 | -57.94885 | 36937 ft | 477 kts | 11° |
| 2026-04-17 13:40 | -31.09184 | -57.92657 | 36931 ft | 476 kts | 11° |
| 2026-04-17 13:40 | -31.02856 | -57.90435 | 36932 ft | 476 kts | 11° |
| 2026-04-17 13:41 | -30.96537 | -57.88219 | 36933 ft | 475 kts | 11° |
| 2026-04-17 13:41 | -30.90221 | -57.86007 | 36932 ft | 475 kts | 11° |
| 2026-04-17 13:42 | -30.83903 | -57.83798 | 36936 ft | 475 kts | 11° |
| 2026-04-17 13:42 | -30.77585 | -57.81591 | 36936 ft | 475 kts | 11° |
| 2026-04-17 13:43 | -30.71263 | -57.79385 | 36933 ft | 476 kts | 11° |
| 2026-04-17 13:43 | -30.64932 | -57.77173 | 36933 ft | 476 kts | 11° |
| 2026-04-17 13:44 | -30.58598 | -57.74950 | 36941 ft | 477 kts | 11° |
| 2026-04-17 13:44 | -30.52250 | -57.72724 | 36940 ft | 478 kts | 11° |
| 2026-04-17 13:45 | -30.45897 | -57.70501 | 36935 ft | 478 kts | 11° |
| 2026-04-17 13:45 | -30.39539 | -57.68279 | 36934 ft | 479 kts | 11° |
| 2026-04-17 13:46 | -30.33171 | -57.66056 | 36935 ft | 479 kts | 11° |
| 2026-04-17 13:46 | -30.26780 | -57.63992 | 36928 ft | 474 kts | 4° |
| 2026-04-17 13:47 | -30.20319 | -57.63505 | 36941 ft | 464 kts | 354° |
| 2026-04-17 13:47 | -30.13874 | -57.63445 | 36937 ft | 464 kts | 354° |
| 2026-04-17 13:48 | -30.07421 | -57.63355 | 36935 ft | 465 kts | 354° |
| 2026-04-17 13:48 | -30.00966 | -57.63222 | 36937 ft | 465 kts | 355° |
| 2026-04-17 13:49 | -29.94507 | -57.63074 | 36937 ft | 465 kts | 355° |
| 2026-04-17 13:49 | -29.88045 | -57.62925 | 36940 ft | 465 kts | 355° |
| 2026-04-17 13:50 | -29.81580 | -57.62777 | 36937 ft | 466 kts | 355° |
| 2026-04-17 13:50 | -29.75114 | -57.62631 | 36937 ft | 466 kts | 355° |
| 2026-04-17 13:51 | -29.68650 | -57.62486 | 36950 ft | 466 kts | 355° |
| 2026-04-17 13:51 | -29.62181 | -57.62340 | 36935 ft | 466 kts | 355° |
| 2026-04-17 13:52 | -29.55711 | -57.62195 | 36937 ft | 466 kts | 355° |
| 2026-04-17 13:52 | -29.49240 | -57.62049 | 36941 ft | 466 kts | 355° |
| 2026-04-17 13:53 | -29.42772 | -57.61904 | 36938 ft | 466 kts | 355° |
| 2026-04-17 13:53 | -29.36305 | -57.61760 | 36937 ft | 466 kts | 355° |
| 2026-04-17 13:54 | -29.26604 | -57.61543 | 36934 ft | 466 kts | 355° |
| 2026-04-17 13:55 | -29.16900 | -57.61316 | 36938 ft | 466 kts | 355° |
| 2026-04-17 13:56 | -29.03959 | -57.61001 | 36940 ft | 466 kts | 355° |
| 2026-04-17 13:56 | -28.97483 | -57.60845 | 36938 ft | 466 kts | 355° |
| 2026-04-17 13:57 | -28.91007 | -57.60690 | 36940 ft | 467 kts | 355° |
| 2026-04-17 13:58 | -28.81288 | -57.60457 | 36940 ft | 467 kts | 355° |
| 2026-04-17 13:58 | -28.71560 | -57.60224 | 36936 ft | 467 kts | 355° |
| 2026-04-17 13:59 | -28.61826 | -57.59992 | 36936 ft | 467 kts | 355° |
| 2026-04-17 14:00 | -28.55337 | -57.59837 | 36940 ft | 467 kts | 355° |
| 2026-04-17 14:00 | -28.48849 | -57.59683 | 36939 ft | 467 kts | 355° |
| 2026-04-17 14:01 | -28.42358 | -57.59528 | 36939 ft | 467 kts | 355° |
| 2026-04-17 14:01 | -28.35871 | -57.59374 | 36941 ft | 467 kts | 355° |
| 2026-04-17 14:02 | -28.29382 | -57.59220 | 36936 ft | 467 kts | 355° |
| 2026-04-17 14:02 | -28.22897 | -57.59066 | 36940 ft | 467 kts | 355° |
| 2026-04-17 14:03 | -28.16416 | -57.58881 | 36948 ft | 467 kts | 356° |
| 2026-04-17 14:03 | -28.09926 | -57.58602 | 36942 ft | 468 kts | 356° |
| 2026-04-17 14:04 | -28.03437 | -57.58312 | 36945 ft | 467 kts | 356° |
| 2026-04-17 14:04 | -27.96953 | -57.58035 | 36944 ft | 467 kts | 356° |
| 2026-04-17 14:05 | -27.90472 | -57.57766 | 36944 ft | 467 kts | 356° |
| 2026-04-17 14:05 | -27.87231 | -57.57632 | 36945 ft | 467 kts | 356° |
| 2026-04-17 14:06 | -27.77524 | -57.57230 | 36948 ft | 466 kts | 356° |
| 2026-04-17 14:06 | -27.71058 | -57.56962 | 36947 ft | 466 kts | 356° |
| 2026-04-17 14:07 | -27.64594 | -57.56695 | 36949 ft | 466 kts | 356° |
| 2026-04-17 14:07 | -27.58131 | -57.56428 | 36947 ft | 466 kts | 356° |
| 2026-04-17 14:08 | -27.51674 | -57.56162 | 36947 ft | 465 kts | 356° |
| 2026-04-17 14:08 | -27.45219 | -57.55896 | 36951 ft | 465 kts | 356° |
| 2026-04-17 14:09 | -27.38764 | -57.55659 | 36933 ft | 465 kts | 356° |
| 2026-04-17 14:09 | -27.35509 | -57.55571 | 36447 ft | 471 kts | 356° |
| 2026-04-17 14:09 | -27.32247 | -57.55488 | 35909 ft | 469 kts | 356° |
| 2026-04-17 14:09 | -27.28985 | -57.55404 | 35314 ft | 469 kts | 356° |
| 2026-04-17 14:10 | -27.25746 | -57.55317 | 34906 ft | 465 kts | 356° |
| 2026-04-17 14:10 | -27.22529 | -57.55228 | 34461 ft | 462 kts | 356° |
| 2026-04-17 14:10 | -27.19342 | -57.55139 | 34018 ft | 459 kts | 356° |
| 2026-04-17 14:10 | -27.16163 | -57.55050 | 33527 ft | 456 kts | 356° |
| 2026-04-17 14:11 | -27.13011 | -57.54962 | 33063 ft | 452 kts | 356° |
| 2026-04-17 14:11 | -27.09885 | -57.54875 | 32622 ft | 449 kts | 356° |
| 2026-04-17 14:11 | -27.06784 | -57.54788 | 32192 ft | 445 kts | 356° |
| 2026-04-17 14:11 | -27.03703 | -57.54703 | 31768 ft | 442 kts | 356° |
| 2026-04-17 14:12 | -27.00647 | -57.54618 | 31356 ft | 439 kts | 356° |
| 2026-04-17 14:12 | -26.97612 | -57.54534 | 30948 ft | 436 kts | 356° |
| 2026-04-17 14:12 | -26.94601 | -57.54451 | 30535 ft | 433 kts | 356° |
| 2026-04-17 14:13 | -26.88625 | -57.54286 | 29655 ft | 428 kts | 356° |
| 2026-04-17 14:13 | -26.85663 | -57.54203 | 29199 ft | 425 kts | 356° |
| 2026-04-17 14:13 | -26.82731 | -57.54142 | 28756 ft | 421 kts | 356° |
| 2026-04-17 14:13 | -26.79817 | -57.54106 | 28325 ft | 417 kts | 356° |
| 2026-04-17 14:14 | -26.76933 | -57.54078 | 27910 ft | 414 kts | 355° |
| 2026-04-17 14:14 | -26.74068 | -57.54051 | 27501 ft | 411 kts | 356° |
| 2026-04-17 14:14 | -26.71226 | -57.54021 | 27088 ft | 408 kts | 356° |
| 2026-04-17 14:14 | -26.68405 | -57.53990 | 26684 ft | 405 kts | 356° |
| 2026-04-17 14:15 | -26.65598 | -57.53958 | 26277 ft | 403 kts | 356° |
| 2026-04-17 14:15 | -26.62815 | -57.53925 | 25880 ft | 400 kts | 356° |
| 2026-04-17 14:15 | -26.60042 | -57.53892 | 25478 ft | 398 kts | 356° |
| 2026-04-17 14:15 | -26.57281 | -57.53859 | 25078 ft | 396 kts | 356° |
| 2026-04-17 14:16 | -26.54536 | -57.53826 | 24667 ft | 395 kts | 356° |
| 2026-04-17 14:16 | -26.51798 | -57.53793 | 24273 ft | 393 kts | 356° |
| 2026-04-17 14:16 | -26.49069 | -57.53761 | 23809 ft | 394 kts | 356° |
| 2026-04-17 14:16 | -26.46320 | -57.53733 | 23176 ft | 398 kts | 356° |
| 2026-04-17 14:17 | -26.43546 | -57.53704 | 22540 ft | 400 kts | 356° |
| 2026-04-17 14:17 | -26.40762 | -57.53676 | 21953 ft | 402 kts | 356° |
| 2026-04-17 14:17 | -26.37966 | -57.53647 | 21346 ft | 403 kts | 356° |
| 2026-04-17 14:17 | -26.35161 | -57.53617 | 20751 ft | 405 kts | 356° |
| 2026-04-17 14:18 | -26.32348 | -57.53588 | 20163 ft | 406 kts | 356° |
| 2026-04-17 14:18 | -26.29528 | -57.53558 | 19564 ft | 407 kts | 356° |
| 2026-04-17 14:18 | -26.26694 | -57.53528 | 18953 ft | 409 kts | 356° |
| 2026-04-17 14:18 | -26.23853 | -57.53499 | 18349 ft | 410 kts | 356° |
| 2026-04-17 14:19 | -26.21001 | -57.53469 | 17681 ft | 411 kts | 357° |
| 2026-04-17 14:19 | -26.18151 | -57.53438 | 17045 ft | 410 kts | 357° |
| 2026-04-17 14:19 | -26.15329 | -57.53407 | 16414 ft | 401 kts | 357° |
| 2026-04-17 14:19 | -26.12579 | -57.53376 | 15835 ft | 391 kts | 357° |
| 2026-04-17 14:20 | -26.09900 | -57.53347 | 15275 ft | 381 kts | 357° |
| 2026-04-17 14:20 | -26.07286 | -57.53345 | 14723 ft | 371 kts | 354° |
| 2026-04-17 14:20 | -26.04747 | -57.53528 | 14198 ft | 362 kts | 351° |
| 2026-04-17 14:20 | -26.02274 | -57.53804 | 13650 ft | 355 kts | 350° |
| 2026-04-17 14:21 | -25.99844 | -57.54099 | 13068 ft | 348 kts | 350° |
| 2026-04-17 14:21 | -25.97469 | -57.54384 | 12552 ft | 340 kts | 351° |
| 2026-04-17 14:21 | -25.95142 | -57.54651 | 12040 ft | 334 kts | 351° |
| 2026-04-17 14:21 | -25.92861 | -57.54904 | 11557 ft | 327 kts | 352° |
| 2026-04-17 14:22 | -25.90622 | -57.55147 | 11090 ft | 321 kts | 352° |
| 2026-04-17 14:22 | -25.88424 | -57.55381 | 10616 ft | 316 kts | 352° |
| 2026-04-17 14:22 | -25.86264 | -57.55609 | 10269 ft | 307 kts | 353° |
| 2026-04-17 14:22 | -25.84198 | -57.55824 | 10046 ft | 294 kts | 353° |
| 2026-04-17 14:23 | -25.82167 | -57.56036 | 9733 ft | 285 kts | 353° |
| 2026-04-17 14:23 | -25.80216 | -57.56239 | 9374 ft | 279 kts | 353° |
| 2026-04-17 14:23 | -25.78293 | -57.56439 | 8933 ft | 278 kts | 353° |
| 2026-04-17 14:23 | -25.76375 | -57.56639 | 8468 ft | 277 kts | 353° |
| 2026-04-17 14:24 | -25.74463 | -57.56838 | 8022 ft | 276 kts | 353° |
| 2026-04-17 14:24 | -25.72561 | -57.57036 | 7607 ft | 274 kts | 353° |
| 2026-04-17 14:24 | -25.70669 | -57.57232 | 7194 ft | 273 kts | 352° |
| 2026-04-17 14:24 | -25.68782 | -57.57428 | 6780 ft | 272 kts | 352° |
| 2026-04-17 14:25 | -25.66906 | -57.57623 | 6360 ft | 271 kts | 352° |
| 2026-04-17 14:25 | -25.65039 | -57.57819 | 5966 ft | 269 kts | 353° |
| 2026-04-17 14:25 | -25.63187 | -57.58010 | 5574 ft | 266 kts | 353° |
| 2026-04-17 14:25 | -25.61354 | -57.58203 | 5191 ft | 264 kts | 353° |
| 2026-04-17 14:26 | -25.59536 | -57.58388 | 4800 ft | 262 kts | 353° |
| 2026-04-17 14:26 | -25.57728 | -57.58574 | 4426 ft | 260 kts | 354° |
| 2026-04-17 14:26 | -25.55934 | -57.58760 | 4018 ft | 259 kts | 354° |
| 2026-04-17 14:26 | -25.54154 | -57.58943 | 3659 ft | 256 kts | 355° |
| 2026-04-17 14:27 | -25.52386 | -57.58839 | 3272 ft | 255 kts | 9° |
| 2026-04-17 14:27 | -25.50658 | -57.58444 | 2893 ft | 253 kts | 13° |
| 2026-04-17 14:27 | -25.48968 | -57.58011 | 2750 ft | 244 kts | 13° |
| 2026-04-17 14:27 | -25.47323 | -57.57597 | 2793 ft | 246 kts | 12° |
| 2026-04-17 14:28 | -25.45664 | -57.57189 | 2776 ft | 240 kts | 12° |
| 2026-04-17 14:28 | -25.44086 | -57.56804 | 2794 ft | 226 kts | 12° |
| 2026-04-17 14:28 | -25.42586 | -57.56440 | 2781 ft | 217 kts | 12° |
| 2026-04-17 14:28 | -25.41168 | -57.56094 | 2765 ft | 199 kts | 12° |
| 2026-04-17 14:29 | -25.39884 | -57.55782 | 2763 ft | 179 kts | 12° |
| 2026-04-17 14:29 | -25.38729 | -57.55500 | 2769 ft | 165 kts | 12° |
| 2026-04-17 14:29 | -25.37627 | -57.55232 | 2762 ft | 161 kts | 12° |
| 2026-04-17 14:29 | -25.36540 | -57.54968 | 2553 ft | 160 kts | 12° |
| 2026-04-17 14:30 | -25.35471 | -57.54708 | 2348 ft | 156 kts | 12° |
| 2026-04-17 14:30 | -25.34418 | -57.54451 | 2150 ft | 156 kts | 12° |
| 2026-04-17 14:30 | -25.33370 | -57.54196 | 1978 ft | 154 kts | 13° |
| 2026-04-17 14:30 | -25.32318 | -57.53940 | 1738 ft | 154 kts | 13° |
| 2026-04-17 14:31 | -25.31274 | -57.53686 | 1528 ft | 154 kts | 13° |
| 2026-04-17 14:31 | -25.30231 | -57.53432 | 1330 ft | 154 kts | 13° |
| 2026-04-17 14:31 | -25.29186 | -57.53177 | 1129 ft | 155 kts | 13° |
| 2026-04-17 14:31 | -25.28131 | -57.52920 | 924 ft | 156 kts | 13° |
| 2026-04-17 14:32 | -25.27066 | -57.52661 | 706 ft | 157 kts | 13° |
| 2026-04-17 14:32 | -25.26001 | -57.52401 | 432 ft | 156 kts | 14° |
| 2026-04-17 14:32 | -25.24948 | -57.52147 | 307 ft | 153 kts | 13° |
| 2026-04-17 14:32 | -25.23986 | -57.51911 | 288 ft | 137 kts | 10° |
| 2026-04-17 14:33 | -25.23209 | -57.51724 | 272 ft | 76 kts | 11° |
| 2026-04-17 14:33 | -25.22924 | -57.51658 | 271 ft | 26 kts | 14° |
| 2026-04-17 14:33 | -25.22766 | -57.51618 | 270 ft | 22 kts | 12° |
| 2026-04-17 14:33 | -25.22631 | -57.51585 | 267 ft | 14 kts | 13° |
| 2026-04-17 14:34 | -25.22543 | -57.51553 | 267 ft | 13 kts | 40° |
| 2026-04-17 14:34 | -25.22536 | -57.51460 | 271 ft | 13 kts | 100° |
| 2026-04-17 14:34 | -25.22564 | -57.51373 | 279 ft | 12 kts | 134° |
| 2026-04-17 14:34 | -25.22652 | -57.51369 | 276 ft | 15 kts | 190° |
| 2026-04-17 14:35 | -25.22768 | -57.51397 | 276 ft | 19 kts | 192° |
| 2026-04-17 14:35 | -25.22896 | -57.51428 | 276 ft | 19 kts | 192° |
| 2026-04-17 14:35 | -25.23021 | -57.51457 | 276 ft | 18 kts | 192° |
| 2026-04-17 14:35 | -25.23134 | -57.51486 | 277 ft | 14 kts | 193° |
| 2026-04-17 14:36 | -25.23228 | -57.51510 | 277 ft | 14 kts | 193° |
| 2026-04-17 14:36 | -25.23319 | -57.51531 | 277 ft | 13 kts | 191° |
| 2026-04-17 14:36 | -25.23407 | -57.51551 | 277 ft | 13 kts | 192° |
| 2026-04-17 14:36 | -25.23491 | -57.51575 | 277 ft | 12 kts | 194° |
| 2026-04-17 14:37 | -25.23574 | -57.51596 | 277 ft | 12 kts | 190° |
| 2026-04-17 14:37 | -25.23655 | -57.51612 | 277 ft | 12 kts | 189° |
| 2026-04-17 14:37 | -25.23735 | -57.51629 | 280 ft | 12 kts | 193° |
| 2026-04-17 14:37 | -25.23818 | -57.51652 | 277 ft | 13 kts | 194° |
| 2026-04-17 14:38 | -25.23905 | -57.51675 | 277 ft | 13 kts | 191° |
| 2026-04-17 14:38 | -25.23990 | -57.51647 | 277 ft | 13 kts | 148° |
| 2026-04-17 14:38 | -25.24069 | -57.51600 | 278 ft | 12 kts | 171° |
| 2026-04-17 14:38 | -25.24144 | -57.51613 | 279 ft | 6 kts | 191° |
| 2026-04-17 14:39 | -25.24190 | -57.51619 | 278 ft | 7 kts | 174° |
| 2026-04-17 14:39 | -25.24226 | -57.51583 | 278 ft | 7 kts | 111° |
| 2026-04-17 14:39 | -25.24231 | -57.51561 | 278 ft | 1 kts | 103° |
| 2026-04-17 14:39 | -25.24233 | -57.51551 | 279 ft | 0 kts | 102° |
| 2026-04-17 14:40 | -25.24234 | -57.51546 | 278 ft | 1 kts | 103° |
| 2026-04-17 14:40 | -25.24234 | -57.51545 | 278 ft | 0 kts | 103° |